sensor_id;sensor_type;location;lat;lon;timestamp;temperature;humidity
10294;DHT22;5192;50.328;7.610;2022-09-09T00:01:51;16.60;99.90
10294;DHT22;5192;50.328;7.610;2022-09-09T00:04:37;16.70;99.90
10294;DHT22;5192;50.328;7.610;2022-09-09T00:12:56;16.80;99.90
10294;DHT22;5192;50.328;7.610;2022-09-09T00:16:11;16.80;99.90
10294;DHT22;5192;50.328;7.610;2022-09-09T00:19:05;16.80;99.90
10294;DHT22;5192;50.328;7.610;2022-09-09T00:21:47;16.80;99.90
10294;DHT22;5192;50.328;7.610;2022-09-09T00:24:44;16.70;99.90
10294;DHT22;5192;50.328;7.610;2022-09-09T00:27:45;16.80;99.90
10294;DHT22;5192;50.328;7.610;2022-09-09T00:30:24;16.80;99.90
10294;DHT22;5192;50.328;7.610;2022-09-09T00:32:58;16.80;99.90
10294;DHT22;5192;50.328;7.610;2022-09-09T00:35:54;16.80;99.90
10294;DHT22;5192;50.328;7.610;2022-09-09T00:38:55;16.70;99.90
10294;DHT22;5192;50.328;7.610;2022-09-09T00:44:52;16.70;99.90
10294;DHT22;5192;50.328;7.610;2022-09-09T00:47:44;16.70;99.90
10294;DHT22;5192;50.328;7.610;2022-09-09T00:54:01;16.80;99.90
10294;DHT22;5192;50.328;7.610;2022-09-09T00:59:50;16.80;99.90
10294;DHT22;5192;50.328;7.610;2022-09-09T01:02:58;16.80;99.90
10294;DHT22;5192;50.328;7.610;2022-09-09T01:06:12;16.80;99.90
10294;DHT22;5192;50.328;7.610;2022-09-09T01:17:31;16.70;99.90
10294;DHT22;5192;50.328;7.610;2022-09-09T01:24:02;16.60;99.90
10294;DHT22;5192;50.328;7.610;2022-09-09T01:26:25;16.60;99.90
10294;DHT22;5192;50.328;7.610;2022-09-09T01:28:52;16.60;99.90
10294;DHT22;5192;50.328;7.610;2022-09-09T01:31:38;16.50;99.90
10294;DHT22;5192;50.328;7.610;2022-09-09T01:34:14;16.50;99.90
10294;DHT22;5192;50.328;7.610;2022-09-09T01:39:44;16.30;99.90
10294;DHT22;5192;50.328;7.610;2022-09-09T01:42:12;16.30;99.90
10294;DHT22;5192;50.328;7.610;2022-09-09T01:44:47;16.30;99.90
10294;DHT22;5192;50.328;7.610;2022-09-09T01:47:15;16.20;99.90
10294;DHT22;5192;50.328;7.610;2022-09-09T01:49:45;16.20;99.90
10294;DHT22;5192;50.328;7.610;2022-09-09T01:52:10;16.30;99.90
10294;DHT22;5192;50.328;7.610;2022-09-09T01:54:38;16.20;99.90
10294;DHT22;5192;50.328;7.610;2022-09-09T02:00:16;16.30;99.90
10294;DHT22;5192;50.328;7.610;2022-09-09T02:03:28;16.30;99.90
10294;DHT22;5192;50.328;7.610;2022-09-09T02:06:27;16.30;99.90
10294;DHT22;5192;50.328;7.610;2022-09-09T02:09:16;16.30;99.90
10294;DHT22;5192;50.328;7.610;2022-09-09T02:12:18;16.30;99.90
10294;DHT22;5192;50.328;7.610;2022-09-09T02:15:17;16.20;99.90
10294;DHT22;5192;50.328;7.610;2022-09-09T02:18:20;16.30;99.90
10294;DHT22;5192;50.328;7.610;2022-09-09T02:20:52;16.20;99.90
10294;DHT22;5192;50.328;7.610;2022-09-09T02:23:25;16.30;99.90
10294;DHT22;5192;50.328;7.610;2022-09-09T02:25:54;16.30;99.90
10294;DHT22;5192;50.328;7.610;2022-09-09T02:28:46;16.20;99.90
10294;DHT22;5192;50.328;7.610;2022-09-09T02:31:18;16.10;99.90
10294;DHT22;5192;50.328;7.610;2022-09-09T02:34:05;16.00;99.90
10294;DHT22;5192;50.328;7.610;2022-09-09T02:36:38;15.90;99.90
10294;DHT22;5192;50.328;7.610;2022-09-09T02:39:26;15.80;99.90
10294;DHT22;5192;50.328;7.610;2022-09-09T02:41:51;15.70;99.90
10294;DHT22;5192;50.328;7.610;2022-09-09T02:44:18;15.60;99.90
10294;DHT22;5192;50.328;7.610;2022-09-09T02:47:19;15.60;99.90
10294;DHT22;5192;50.328;7.610;2022-09-09T02:50:16;15.50;99.90
10294;DHT22;5192;50.328;7.610;2022-09-09T02:53:16;15.40;99.90
10294;DHT22;5192;50.328;7.610;2022-09-09T02:56:04;15.30;99.90
10294;DHT22;5192;50.328;7.610;2022-09-09T02:58:35;15.20;99.90
10294;DHT22;5192;50.328;7.610;2022-09-09T03:01:05;15.20;99.90
10294;DHT22;5192;50.328;7.610;2022-09-09T03:03:32;15.10;99.90
10294;DHT22;5192;50.328;7.610;2022-09-09T03:05:59;15.10;99.90
10294;DHT22;5192;50.328;7.610;2022-09-09T03:08:26;15.10;99.90
10294;DHT22;5192;50.328;7.610;2022-09-09T03:10:59;15.10;99.90
10294;DHT22;5192;50.328;7.610;2022-09-09T03:13:28;15.00;99.90
10294;DHT22;5192;50.328;7.610;2022-09-09T03:15:54;15.10;99.90
10294;DHT22;5192;50.328;7.610;2022-09-09T03:18:21;15.10;99.90
10294;DHT22;5192;50.328;7.610;2022-09-09T03:20:49;15.00;99.90
10294;DHT22;5192;50.328;7.610;2022-09-09T03:23:15;15.00;99.90
10294;DHT22;5192;50.328;7.610;2022-09-09T03:25:51;15.00;99.90
10294;DHT22;5192;50.328;7.610;2022-09-09T03:28:17;15.10;99.90
10294;DHT22;5192;50.328;7.610;2022-09-09T03:30:44;15.00;99.90
10294;DHT22;5192;50.328;7.610;2022-09-09T03:33:10;15.00;99.90
10294;DHT22;5192;50.328;7.610;2022-09-09T03:35:37;15.00;99.90
10294;DHT22;5192;50.328;7.610;2022-09-09T03:38:04;15.00;99.90
10294;DHT22;5192;50.328;7.610;2022-09-09T03:40:31;15.00;99.90
10294;DHT22;5192;50.328;7.610;2022-09-09T03:42:58;15.00;99.90
10294;DHT22;5192;50.328;7.610;2022-09-09T03:45:24;15.10;99.90
10294;DHT22;5192;50.328;7.610;2022-09-09T03:47:52;15.20;99.90
10294;DHT22;5192;50.328;7.610;2022-09-09T03:50:19;15.40;99.90
10294;DHT22;5192;50.328;7.610;2022-09-09T03:52:46;15.40;99.90
10294;DHT22;5192;50.328;7.610;2022-09-09T03:55:15;15.60;99.90
10294;DHT22;5192;50.328;7.610;2022-09-09T03:57:41;15.60;99.90
10294;DHT22;5192;50.328;7.610;2022-09-09T04:00:08;15.60;99.90
10294;DHT22;5192;50.328;7.610;2022-09-09T04:02:36;15.60;99.90
10294;DHT22;5192;50.328;7.610;2022-09-09T04:05:04;15.60;99.90
10294;DHT22;5192;50.328;7.610;2022-09-09T04:07:34;15.60;99.90
10294;DHT22;5192;50.328;7.610;2022-09-09T04:09:59;15.60;99.90
10294;DHT22;5192;50.328;7.610;2022-09-09T04:12:26;15.60;99.90
10294;DHT22;5192;50.328;7.610;2022-09-09T04:14:54;15.60;99.90
10294;DHT22;5192;50.328;7.610;2022-09-09T04:17:21;15.60;99.90
10294;DHT22;5192;50.328;7.610;2022-09-09T04:19:48;15.60;99.90
10294;DHT22;5192;50.328;7.610;2022-09-09T04:22:15;15.50;99.90
10294;DHT22;5192;50.328;7.610;2022-09-09T04:24:44;15.50;99.90
10294;DHT22;5192;50.328;7.610;2022-09-09T04:27:10;15.50;99.90
10294;DHT22;5192;50.328;7.610;2022-09-09T04:29:37;15.50;99.90
10294;DHT22;5192;50.328;7.610;2022-09-09T04:32:04;15.50;99.90
10294;DHT22;5192;50.328;7.610;2022-09-09T04:34:32;15.50;99.90
10294;DHT22;5192;50.328;7.610;2022-09-09T04:37:02;15.50;99.90
10294;DHT22;5192;50.328;7.610;2022-09-09T04:39:28;15.50;99.90
10294;DHT22;5192;50.328;7.610;2022-09-09T04:41:55;15.50;99.90
10294;DHT22;5192;50.328;7.610;2022-09-09T04:44:23;15.50;99.90
10294;DHT22;5192;50.328;7.610;2022-09-09T04:46:50;15.50;99.90
10294;DHT22;5192;50.328;7.610;2022-09-09T04:49:17;15.50;99.90
10294;DHT22;5192;50.328;7.610;2022-09-09T04:51:43;15.40;99.90
10294;DHT22;5192;50.328;7.610;2022-09-09T04:54:08;15.40;99.90
10294;DHT22;5192;50.328;7.610;2022-09-09T04:56:35;15.50;99.90
10294;DHT22;5192;50.328;7.610;2022-09-09T04:59:05;15.50;99.90
10294;DHT22;5192;50.328;7.610;2022-09-09T05:01:32;15.50;99.90
10294;DHT22;5192;50.328;7.610;2022-09-09T05:04:00;15.50;99.90
10294;DHT22;5192;50.328;7.610;2022-09-09T05:06:26;15.50;99.90
10294;DHT22;5192;50.328;7.610;2022-09-09T05:08:53;15.60;99.90
10294;DHT22;5192;50.328;7.610;2022-09-09T05:11:21;15.60;99.90
10294;DHT22;5192;50.328;7.610;2022-09-09T05:13:51;15.60;99.90
10294;DHT22;5192;50.328;7.610;2022-09-09T05:16:19;15.60;99.90
10294;DHT22;5192;50.328;7.610;2022-09-09T05:18:45;15.60;99.90
10294;DHT22;5192;50.328;7.610;2022-09-09T05:21:17;15.60;99.90
10294;DHT22;5192;50.328;7.610;2022-09-09T05:23:46;15.70;99.90
10294;DHT22;5192;50.328;7.610;2022-09-09T05:26:33;15.60;99.90
10294;DHT22;5192;50.328;7.610;2022-09-09T05:29:00;15.70;99.90
10294;DHT22;5192;50.328;7.610;2022-09-09T05:31:28;15.80;99.90
10294;DHT22;5192;50.328;7.610;2022-09-09T05:34:16;15.80;99.90
10294;DHT22;5192;50.328;7.610;2022-09-09T05:36:43;15.80;99.90
10294;DHT22;5192;50.328;7.610;2022-09-09T05:39:10;15.90;99.90
10294;DHT22;5192;50.328;7.610;2022-09-09T05:41:57;16.00;99.90
10294;DHT22;5192;50.328;7.610;2022-09-09T05:44:24;16.00;99.90
10294;DHT22;5192;50.328;7.610;2022-09-09T05:47:10;16.00;99.90
10294;DHT22;5192;50.328;7.610;2022-09-09T05:49:38;16.00;99.90
10294;DHT22;5192;50.328;7.610;2022-09-09T05:52:03;16.00;99.90
10294;DHT22;5192;50.328;7.610;2022-09-09T05:54:29;15.90;99.90
10294;DHT22;5192;50.328;7.610;2022-09-09T05:56:57;15.90;99.90
10294;DHT22;5192;50.328;7.610;2022-09-09T05:59:24;15.90;99.90
10294;DHT22;5192;50.328;7.610;2022-09-09T06:01:51;15.90;99.90
10294;DHT22;5192;50.328;7.610;2022-09-09T06:04:18;15.80;99.90
10294;DHT22;5192;50.328;7.610;2022-09-09T06:06:58;15.80;99.90
10294;DHT22;5192;50.328;7.610;2022-09-09T06:09:25;15.80;99.90
10294;DHT22;5192;50.328;7.610;2022-09-09T06:11:51;15.90;99.90
10294;DHT22;5192;50.328;7.610;2022-09-09T06:14:17;15.90;99.90
10294;DHT22;5192;50.328;7.610;2022-09-09T06:16:57;16.00;99.90
10294;DHT22;5192;50.328;7.610;2022-09-09T06:19:35;16.10;99.90
10294;DHT22;5192;50.328;7.610;2022-09-09T06:22:03;16.20;99.90
10294;DHT22;5192;50.328;7.610;2022-09-09T06:24:29;16.20;99.90
10294;DHT22;5192;50.328;7.610;2022-09-09T06:26:56;16.20;99.90
10294;DHT22;5192;50.328;7.610;2022-09-09T06:29:24;16.20;99.90
10294;DHT22;5192;50.328;7.610;2022-09-09T06:31:53;16.20;99.90
10294;DHT22;5192;50.328;7.610;2022-09-09T06:34:20;16.30;99.90
10294;DHT22;5192;50.328;7.610;2022-09-09T06:36:58;16.30;99.90
10294;DHT22;5192;50.328;7.610;2022-09-09T06:39:24;16.40;99.90
10294;DHT22;5192;50.328;7.610;2022-09-09T06:41:53;16.40;99.90
10294;DHT22;5192;50.328;7.610;2022-09-09T06:44:20;16.40;99.90
10294;DHT22;5192;50.328;7.610;2022-09-09T06:46:45;16.50;99.90
10294;DHT22;5192;50.328;7.610;2022-09-09T06:49:15;16.50;99.90
10294;DHT22;5192;50.328;7.610;2022-09-09T06:51:41;16.60;99.90
10294;DHT22;5192;50.328;7.610;2022-09-09T06:54:11;16.60;99.90
10294;DHT22;5192;50.328;7.610;2022-09-09T06:56:41;16.60;99.90
10294;DHT22;5192;50.328;7.610;2022-09-09T06:59:09;16.70;99.90
10294;DHT22;5192;50.328;7.610;2022-09-09T07:01:37;16.70;99.90
10294;DHT22;5192;50.328;7.610;2022-09-09T07:04:09;16.70;99.90
10294;DHT22;5192;50.328;7.610;2022-09-09T07:06:38;16.70;99.90
10294;DHT22;5192;50.328;7.610;2022-09-09T07:09:12;16.70;99.90
10294;DHT22;5192;50.328;7.610;2022-09-09T07:11:48;16.70;99.90
10294;DHT22;5192;50.328;7.610;2022-09-09T07:14:21;16.80;99.90
10294;DHT22;5192;50.328;7.610;2022-09-09T07:16:48;16.90;99.90
10294;DHT22;5192;50.328;7.610;2022-09-09T07:19:15;16.90;99.90
10294;DHT22;5192;50.328;7.610;2022-09-09T07:21:42;17.10;99.90
10294;DHT22;5192;50.328;7.610;2022-09-09T07:24:10;17.10;99.90
10294;DHT22;5192;50.328;7.610;2022-09-09T07:26:36;17.20;99.90
10294;DHT22;5192;50.328;7.610;2022-09-09T07:29:03;17.30;99.90
10294;DHT22;5192;50.328;7.610;2022-09-09T07:31:33;17.30;99.90
10294;DHT22;5192;50.328;7.610;2022-09-09T07:34:01;17.40;99.90
10294;DHT22;5192;50.328;7.610;2022-09-09T07:36:37;17.50;99.90
10294;DHT22;5192;50.328;7.610;2022-09-09T07:39:10;17.50;99.90
10294;DHT22;5192;50.328;7.610;2022-09-09T07:41:40;17.60;99.90
10294;DHT22;5192;50.328;7.610;2022-09-09T07:44:10;17.70;99.90
10294;DHT22;5192;50.328;7.610;2022-09-09T07:46:39;17.70;99.90
10294;DHT22;5192;50.328;7.610;2022-09-09T07:49:05;17.70;99.90
10294;DHT22;5192;50.328;7.610;2022-09-09T07:51:35;17.70;99.90
10294;DHT22;5192;50.328;7.610;2022-09-09T07:54:07;17.60;99.90
10294;DHT22;5192;50.328;7.610;2022-09-09T07:56:55;17.60;99.90
10294;DHT22;5192;50.328;7.610;2022-09-09T07:59:22;17.60;99.90
10294;DHT22;5192;50.328;7.610;2022-09-09T08:01:50;17.70;99.90
10294;DHT22;5192;50.328;7.610;2022-09-09T08:04:23;17.70;99.90
10294;DHT22;5192;50.328;7.610;2022-09-09T08:06:59;17.70;99.90
10294;DHT22;5192;50.328;7.610;2022-09-09T08:09:28;17.80;99.90
10294;DHT22;5192;50.328;7.610;2022-09-09T08:11:56;17.70;99.90
10294;DHT22;5192;50.328;7.610;2022-09-09T08:14:24;17.80;99.90
10294;DHT22;5192;50.328;7.610;2022-09-09T08:16:51;17.90;99.90
10294;DHT22;5192;50.328;7.610;2022-09-09T08:19:21;18.00;99.90
10294;DHT22;5192;50.328;7.610;2022-09-09T08:21:46;18.10;99.90
10294;DHT22;5192;50.328;7.610;2022-09-09T08:24:16;18.10;99.90
10294;DHT22;5192;50.328;7.610;2022-09-09T08:26:48;18.00;99.90
10294;DHT22;5192;50.328;7.610;2022-09-09T08:29:17;18.10;99.90
10294;DHT22;5192;50.328;7.610;2022-09-09T08:31:58;18.20;99.90
10294;DHT22;5192;50.328;7.610;2022-09-09T08:34:27;18.30;99.90
10294;DHT22;5192;50.328;7.610;2022-09-09T08:36:55;18.30;99.90
10294;DHT22;5192;50.328;7.610;2022-09-09T08:39:22;18.30;99.90
10294;DHT22;5192;50.328;7.610;2022-09-09T08:51:37;18.20;99.90
10294;DHT22;5192;50.328;7.610;2022-09-09T08:54:14;18.10;99.90
10294;DHT22;5192;50.328;7.610;2022-09-09T08:56:46;18.10;99.90
10294;DHT22;5192;50.328;7.610;2022-09-09T08:59:17;18.10;99.90
10294;DHT22;5192;50.328;7.610;2022-09-09T09:02:11;18.20;99.90
10294;DHT22;5192;50.328;7.610;2022-09-09T09:10:50;18.30;99.90
10294;DHT22;5192;50.328;7.610;2022-09-09T09:16:51;18.40;99.90
10294;DHT22;5192;50.328;7.610;2022-09-09T09:19:39;18.50;99.90
10294;DHT22;5192;50.328;7.610;2022-09-09T09:22:40;18.50;99.90
10294;DHT22;5192;50.328;7.610;2022-09-09T09:25:48;18.60;99.90
10294;DHT22;5192;50.328;7.610;2022-09-09T09:28:36;18.70;99.90
10294;DHT22;5192;50.328;7.610;2022-09-09T09:31:21;18.90;99.90
10294;DHT22;5192;50.328;7.610;2022-09-09T09:33:56;19.00;82.60
10294;DHT22;5192;50.328;7.610;2022-09-09T09:36:52;19.00;70.50
10294;DHT22;5192;50.328;7.610;2022-09-09T09:39:44;19.00;62.20
10294;DHT22;5192;50.328;7.610;2022-09-09T09:42:36;18.90;67.10
10294;DHT22;5192;50.328;7.610;2022-09-09T09:45:43;18.90;67.20
10294;DHT22;5192;50.328;7.610;2022-09-09T09:48:18;18.90;67.80
10294;DHT22;5192;50.328;7.610;2022-09-09T09:51:09;19.10;66.00
10294;DHT22;5192;50.328;7.610;2022-09-09T09:57:30;19.30;36.50
10294;DHT22;5192;50.328;7.610;2022-09-09T10:00:25;19.20;35.70
10294;DHT22;5192;50.328;7.610;2022-09-09T10:02:56;19.40;15.00
10294;DHT22;5192;50.328;7.610;2022-09-09T10:05:47;19.60;4.90
10294;DHT22;5192;50.328;7.610;2022-09-09T10:08:44;19.60;1.00
10294;DHT22;5192;50.328;7.610;2022-09-09T10:21:00;20.10;1.00
10294;DHT22;5192;50.328;7.610;2022-09-09T10:24:01;20.00;1.00
10294;DHT22;5192;50.328;7.610;2022-09-09T10:36:26;20.70;1.00
10294;DHT22;5192;50.328;7.610;2022-09-09T10:39:31;20.80;1.00
10294;DHT22;5192;50.328;7.610;2022-09-09T10:42:19;21.10;1.00
10294;DHT22;5192;50.328;7.610;2022-09-09T10:48:53;21.30;1.00
10294;DHT22;5192;50.328;7.610;2022-09-09T10:55:20;21.40;1.00
10294;DHT22;5192;50.328;7.610;2022-09-09T10:58:20;21.50;1.00
10294;DHT22;5192;50.328;7.610;2022-09-09T11:01:21;21.20;1.00
10294;DHT22;5192;50.328;7.610;2022-09-09T11:04:20;21.00;1.00
10294;DHT22;5192;50.328;7.610;2022-09-09T11:06:56;20.90;1.00
10294;DHT22;5192;50.328;7.610;2022-09-09T11:09:48;21.00;1.00
10294;DHT22;5192;50.328;7.610;2022-09-09T11:12:47;21.00;1.00
10294;DHT22;5192;50.328;7.610;2022-09-09T11:15:58;21.00;1.00
10294;DHT22;5192;50.328;7.610;2022-09-09T11:18:46;20.70;1.00
10294;DHT22;5192;50.328;7.610;2022-09-09T11:21:49;20.80;1.00
10294;DHT22;5192;50.328;7.610;2022-09-09T11:24:40;21.10;1.00
10294;DHT22;5192;50.328;7.610;2022-09-09T11:27:30;21.50;1.00
10294;DHT22;5192;50.328;7.610;2022-09-09T11:41:46;20.70;1.00
10294;DHT22;5192;50.328;7.610;2022-09-09T11:44:39;20.90;1.00
10294;DHT22;5192;50.328;7.610;2022-09-09T11:47:30;21.30;1.00
10294;DHT22;5192;50.328;7.610;2022-09-09T11:50:35;21.50;1.00
10294;DHT22;5192;50.328;7.610;2022-09-09T11:53:28;21.50;1.00
10294;DHT22;5192;50.328;7.610;2022-09-09T11:56:45;21.70;1.00
10294;DHT22;5192;50.328;7.610;2022-09-09T11:59:28;21.50;1.00
10294;DHT22;5192;50.328;7.610;2022-09-09T12:02:29;21.30;1.00
10294;DHT22;5192;50.328;7.610;2022-09-09T12:05:14;21.50;1.00
10294;DHT22;5192;50.328;7.610;2022-09-09T12:08:28;22.00;1.00
10294;DHT22;5192;50.328;7.610;2022-09-09T12:10:59;22.40;1.00
10294;DHT22;5192;50.328;7.610;2022-09-09T12:13:27;22.40;1.00
10294;DHT22;5192;50.328;7.610;2022-09-09T12:16:44;22.30;1.00
10294;DHT22;5192;50.328;7.610;2022-09-09T12:19:25;22.30;1.00
10294;DHT22;5192;50.328;7.610;2022-09-09T12:22:42;22.40;1.00
10294;DHT22;5192;50.328;7.610;2022-09-09T12:25:57;22.40;1.00
10294;DHT22;5192;50.328;7.610;2022-09-09T12:31:46;21.80;1.00
10294;DHT22;5192;50.328;7.610;2022-09-09T12:34:55;21.90;1.00
10294;DHT22;5192;50.328;7.610;2022-09-09T12:37:58;22.20;1.00
10294;DHT22;5192;50.328;7.610;2022-09-09T12:40:56;22.30;1.00
10294;DHT22;5192;50.328;7.610;2022-09-09T12:43:28;22.60;1.00
10294;DHT22;5192;50.328;7.610;2022-09-09T12:46:29;22.50;1.00
10294;DHT22;5192;50.328;7.610;2022-09-09T12:49:35;22.30;1.00
10294;DHT22;5192;50.328;7.610;2022-09-09T12:52:35;22.70;1.00
10294;DHT22;5192;50.328;7.610;2022-09-09T12:55:37;22.90;1.00
10294;DHT22;5192;50.328;7.610;2022-09-09T12:58:25;22.80;1.00
10294;DHT22;5192;50.328;7.610;2022-09-09T13:00:57;23.00;1.00
10294;DHT22;5192;50.328;7.610;2022-09-09T13:03:28;23.30;1.00
10294;DHT22;5192;50.328;7.610;2022-09-09T13:06:28;23.20;1.00
10294;DHT22;5192;50.328;7.610;2022-09-09T13:09:09;23.20;1.00
10294;DHT22;5192;50.328;7.610;2022-09-09T13:11:56;23.40;1.00
10294;DHT22;5192;50.328;7.610;2022-09-09T13:14:30;23.60;1.00
10294;DHT22;5192;50.328;7.610;2022-09-09T13:17:28;23.70;1.00
10294;DHT22;5192;50.328;7.610;2022-09-09T13:19:55;23.70;1.00
10294;DHT22;5192;50.328;7.610;2022-09-09T13:22:50;23.60;1.00
10294;DHT22;5192;50.328;7.610;2022-09-09T13:25:35;23.40;1.00
10294;DHT22;5192;50.328;7.610;2022-09-09T13:28:28;23.80;1.00
10294;DHT22;5192;50.328;7.610;2022-09-09T13:31:29;24.20;1.00
10294;DHT22;5192;50.328;7.610;2022-09-09T13:34:27;24.70;1.00
10294;DHT22;5192;50.328;7.610;2022-09-09T13:37:29;24.70;1.00
10294;DHT22;5192;50.328;7.610;2022-09-09T13:40:18;24.80;1.00
10294;DHT22;5192;50.328;7.610;2022-09-09T13:42:45;24.40;1.00
10294;DHT22;5192;50.328;7.610;2022-09-09T13:45:18;24.50;1.00
10294;DHT22;5192;50.328;7.610;2022-09-09T13:48:19;24.80;1.00
10294;DHT22;5192;50.328;7.610;2022-09-09T13:51:00;25.50;1.00
10294;DHT22;5192;50.328;7.610;2022-09-09T13:53:37;24.80;1.00
10294;DHT22;5192;50.328;7.610;2022-09-09T13:56:09;24.60;1.00
10294;DHT22;5192;50.328;7.610;2022-09-09T13:58:58;24.70;1.00
10294;DHT22;5192;50.328;7.610;2022-09-09T14:01:28;25.00;1.00
10294;DHT22;5192;50.328;7.610;2022-09-09T14:03:57;24.60;1.00
10294;DHT22;5192;50.328;7.610;2022-09-09T14:06:29;23.80;1.00
10294;DHT22;5192;50.328;7.610;2022-09-09T14:08:55;23.80;1.00
10294;DHT22;5192;50.328;7.610;2022-09-09T14:11:46;24.30;1.00
10294;DHT22;5192;50.328;7.610;2022-09-09T14:14:17;23.40;1.00
10294;DHT22;5192;50.328;7.610;2022-09-09T14:16:47;23.70;1.00
10294;DHT22;5192;50.328;7.610;2022-09-09T14:19:16;23.60;1.00
10294;DHT22;5192;50.328;7.610;2022-09-09T14:21:47;23.00;1.00
10294;DHT22;5192;50.328;7.610;2022-09-09T14:24:36;22.70;1.00
10294;DHT22;5192;50.328;7.610;2022-09-09T14:27:08;22.10;1.00
10294;DHT22;5192;50.328;7.610;2022-09-09T14:29:37;21.90;1.00
10294;DHT22;5192;50.328;7.610;2022-09-09T14:32:07;21.20;1.00
10294;DHT22;5192;50.328;7.610;2022-09-09T14:34:38;20.90;1.00
10294;DHT22;5192;50.328;7.610;2022-09-09T14:37:09;20.70;1.00
10294;DHT22;5192;50.328;7.610;2022-09-09T14:39:37;20.50;1.00
10294;DHT22;5192;50.328;7.610;2022-09-09T14:42:07;20.40;1.00
10294;DHT22;5192;50.328;7.610;2022-09-09T14:44:37;20.40;1.00
10294;DHT22;5192;50.328;7.610;2022-09-09T14:47:05;20.30;1.00
10294;DHT22;5192;50.328;7.610;2022-09-09T14:49:37;19.40;99.90
10294;DHT22;5192;50.328;7.610;2022-09-09T14:52:07;17.90;99.90
10294;DHT22;5192;50.328;7.610;2022-09-09T14:54:37;17.00;99.90
10294;DHT22;5192;50.328;7.610;2022-09-09T14:57:07;16.50;99.90
10294;DHT22;5192;50.328;7.610;2022-09-09T14:59:39;16.20;99.90
10294;DHT22;5192;50.328;7.610;2022-09-09T15:02:08;15.90;99.90
10294;DHT22;5192;50.328;7.610;2022-09-09T15:04:37;15.90;99.90
10294;DHT22;5192;50.328;7.610;2022-09-09T15:07:07;15.80;99.90
10294;DHT22;5192;50.328;7.610;2022-09-09T15:09:37;15.80;99.90
10294;DHT22;5192;50.328;7.610;2022-09-09T15:12:07;15.90;99.90
10294;DHT22;5192;50.328;7.610;2022-09-09T15:14:38;15.90;99.90
10294;DHT22;5192;50.328;7.610;2022-09-09T15:17:08;15.90;99.90
10294;DHT22;5192;50.328;7.610;2022-09-09T15:19:39;15.90;99.90
10294;DHT22;5192;50.328;7.610;2022-09-09T15:22:05;16.10;99.90
10294;DHT22;5192;50.328;7.610;2022-09-09T15:24:38;15.90;99.90
10294;DHT22;5192;50.328;7.610;2022-09-09T15:27:04;15.90;99.90
10294;DHT22;5192;50.328;7.610;2022-09-09T15:29:38;15.90;99.90
10294;DHT22;5192;50.328;7.610;2022-09-09T15:32:10;16.10;99.90
10294;DHT22;5192;50.328;7.610;2022-09-09T15:35:07;16.00;99.90
10294;DHT22;5192;50.328;7.610;2022-09-09T15:37:37;16.10;99.90
10294;DHT22;5192;50.328;7.610;2022-09-09T15:40:07;16.10;99.90
10294;DHT22;5192;50.328;7.610;2022-09-09T15:42:38;16.10;99.90
10294;DHT22;5192;50.328;7.610;2022-09-09T15:45:07;16.10;99.90
10294;DHT22;5192;50.328;7.610;2022-09-09T15:47:38;16.20;99.90
10294;DHT22;5192;50.328;7.610;2022-09-09T15:50:06;16.20;99.90
10294;DHT22;5192;50.328;7.610;2022-09-09T15:52:37;16.10;99.90
10294;DHT22;5192;50.328;7.610;2022-09-09T15:55:08;16.20;99.90
10294;DHT22;5192;50.328;7.610;2022-09-09T15:57:35;16.30;99.90
10294;DHT22;5192;50.328;7.610;2022-09-09T16:00:27;16.30;99.90
10294;DHT22;5192;50.328;7.610;2022-09-09T16:02:58;16.40;99.90
10294;DHT22;5192;50.328;7.610;2022-09-09T16:05:28;16.40;99.90
10294;DHT22;5192;50.328;7.610;2022-09-09T16:07:58;16.50;99.90
10294;DHT22;5192;50.328;7.610;2022-09-09T16:10:29;16.50;99.90
10294;DHT22;5192;50.328;7.610;2022-09-09T16:15:59;16.60;99.90
10294;DHT22;5192;50.328;7.610;2022-09-09T16:18:48;16.70;99.90
10294;DHT22;5192;50.328;7.610;2022-09-09T16:21:27;16.60;99.90
10294;DHT22;5192;50.328;7.610;2022-09-09T16:24:09;16.70;99.90
10294;DHT22;5192;50.328;7.610;2022-09-09T16:26:58;16.70;99.90
10294;DHT22;5192;50.328;7.610;2022-09-09T16:29:36;16.80;99.90
10294;DHT22;5192;50.328;7.610;2022-09-09T16:32:09;16.60;99.90
10294;DHT22;5192;50.328;7.610;2022-09-09T16:34:58;16.70;99.90
10294;DHT22;5192;50.328;7.610;2022-09-09T16:37:28;16.50;99.90
10294;DHT22;5192;50.328;7.610;2022-09-09T16:39:58;16.40;99.90
10294;DHT22;5192;50.328;7.610;2022-09-09T16:42:46;16.40;99.90
10294;DHT22;5192;50.328;7.610;2022-09-09T16:45:19;16.40;99.90
10294;DHT22;5192;50.328;7.610;2022-09-09T16:47:49;16.30;99.90
10294;DHT22;5192;50.328;7.610;2022-09-09T16:50:17;16.10;99.90
10294;DHT22;5192;50.328;7.610;2022-09-09T16:52:47;16.00;99.90
10294;DHT22;5192;50.328;7.610;2022-09-09T16:55:18;16.10;99.90
10294;DHT22;5192;50.328;7.610;2022-09-09T16:58:28;16.00;99.90
10294;DHT22;5192;50.328;7.610;2022-09-09T17:01:08;16.00;99.90
10294;DHT22;5192;50.328;7.610;2022-09-09T17:06:28;15.90;99.90
10294;DHT22;5192;50.328;7.610;2022-09-09T17:08:56;15.90;99.90
10294;DHT22;5192;50.328;7.610;2022-09-09T17:11:27;15.90;99.90
10294;DHT22;5192;50.328;7.610;2022-09-09T17:13:56;15.80;99.90
10294;DHT22;5192;50.328;7.610;2022-09-09T17:16:47;15.80;99.90
10294;DHT22;5192;50.328;7.610;2022-09-09T17:19:19;15.80;99.90
10294;DHT22;5192;50.328;7.610;2022-09-09T17:21:48;15.80;99.90
10294;DHT22;5192;50.328;7.610;2022-09-09T17:24:19;15.70;99.90
10294;DHT22;5192;50.328;7.610;2022-09-09T17:26:49;15.80;99.90
10294;DHT22;5192;50.328;7.610;2022-09-09T17:29:19;15.80;99.90
10294;DHT22;5192;50.328;7.610;2022-09-09T17:31:48;15.80;99.90
10294;DHT22;5192;50.328;7.610;2022-09-09T17:34:19;15.80;99.90
10294;DHT22;5192;50.328;7.610;2022-09-09T17:36:48;15.80;99.90
10294;DHT22;5192;50.328;7.610;2022-09-09T17:39:17;15.70;99.90
10294;DHT22;5192;50.328;7.610;2022-09-09T17:41:47;15.70;99.90
10294;DHT22;5192;50.328;7.610;2022-09-09T17:44:18;15.70;99.90
10294;DHT22;5192;50.328;7.610;2022-09-09T17:46:50;15.60;99.90
10294;DHT22;5192;50.328;7.610;2022-09-09T17:49:18;15.60;99.90
10294;DHT22;5192;50.328;7.610;2022-09-09T17:51:47;15.60;99.90
10294;DHT22;5192;50.328;7.610;2022-09-09T17:54:20;15.60;99.90
10294;DHT22;5192;50.328;7.610;2022-09-09T17:56:49;15.60;99.90
10294;DHT22;5192;50.328;7.610;2022-09-09T17:59:38;15.60;99.90
10294;DHT22;5192;50.328;7.610;2022-09-09T18:02:10;15.60;99.90
10294;DHT22;5192;50.328;7.610;2022-09-09T18:04:59;15.60;99.90
10294;DHT22;5192;50.328;7.610;2022-09-09T18:08:18;15.60;99.90
10294;DHT22;5192;50.328;7.610;2022-09-09T18:11:07;15.60;99.90
10294;DHT22;5192;50.328;7.610;2022-09-09T18:13:38;15.60;99.90
10294;DHT22;5192;50.328;7.610;2022-09-09T18:16:18;15.50;99.90
10294;DHT22;5192;50.328;7.610;2022-09-09T18:18:45;15.50;99.90
10294;DHT22;5192;50.328;7.610;2022-09-09T18:21:18;15.50;99.90
10294;DHT22;5192;50.328;7.610;2022-09-09T18:23:46;15.40;99.90
10294;DHT22;5192;50.328;7.610;2022-09-09T18:26:45;15.40;99.90
10294;DHT22;5192;50.328;7.610;2022-09-09T18:29:26;15.40;99.90
10294;DHT22;5192;50.328;7.610;2022-09-09T18:31:58;15.40;99.90
10294;DHT22;5192;50.328;7.610;2022-09-09T18:34:28;15.40;99.90
10294;DHT22;5192;50.328;7.610;2022-09-09T18:37:27;15.40;99.90
10294;DHT22;5192;50.328;7.610;2022-09-09T18:39:58;15.40;99.90